createdAt,value
2022-07-30T00:00:40.227Z,97158.94
2022-07-30T00:03:08.553Z,97153.13
2022-07-30T00:05:38.117Z,97147.13
2022-07-30T00:08:06.480Z,97149.41
2022-07-30T00:10:34.648Z,97149.59
2022-07-30T00:13:03.004Z,97161.84
2022-07-30T00:15:32.133Z,97154.00
2022-07-30T00:18:00.701Z,97151.56
2022-07-30T00:20:29.067Z,97146.97
2022-07-30T00:22:58.935Z,97145.41
2022-07-30T00:25:27.129Z,97144.50
2022-07-30T00:27:55.498Z,97141.19
2022-07-30T00:30:23.934Z,97140.97
2022-07-30T00:32:52.235Z,97143.47
2022-07-30T00:35:20.660Z,97147.19
2022-07-30T00:37:49.420Z,97145.13
2022-07-30T00:40:19.332Z,97154.47
2022-07-30T00:42:48.867Z,97153.16
2022-07-30T00:45:18.401Z,97164.47
2022-07-30T00:47:47.243Z,97160.66
2022-07-30T00:50:16.767Z,97155.84
2022-07-30T00:52:45.600Z,97152.44
2022-07-30T00:55:15.826Z,97150.25
2022-07-30T00:57:45.759Z,97151.28
2022-07-30T01:00:17.178Z,97151.59
2022-07-30T01:02:45.711Z,97147.44
2022-07-30T01:05:14.080Z,97162.66
2022-07-30T01:07:42.592Z,97152.38
2022-07-30T01:10:12.717Z,97150.44
2022-07-30T01:12:41.558Z,97138.81
2022-07-30T01:15:12.047Z,97139.78
2022-07-30T01:17:40.601Z,97131.97
2022-07-30T01:20:12.215Z,97129.59
2022-07-30T01:22:49.483Z,97117.78
2022-07-30T01:25:23.614Z,97125.34
2022-07-30T01:27:57.474Z,97116.59
2022-07-30T01:30:29.389Z,97111.13
2022-07-30T01:32:59.179Z,97111.88
2022-07-30T01:35:29.634Z,97106.56
2022-07-30T01:37:58.910Z,97115.66
2022-07-30T01:40:29.012Z,97119.09
2022-07-30T01:43:02.484Z,97118.38
2022-07-30T01:45:32.324Z,97121.31
2022-07-30T01:48:11.398Z,97115.09
2022-07-30T01:50:44.578Z,97121.03
2022-07-30T01:53:17.010Z,97126.38
2022-07-30T01:55:46.098Z,97113.59
2022-07-30T01:58:18.397Z,97123.28
2022-07-30T02:00:50.700Z,97114.53
2022-07-30T02:03:19.157Z,97121.31
2022-07-30T02:05:54.374Z,97117.44
2022-07-30T02:08:26.841Z,97122.16
2022-07-30T02:10:59.577Z,97128.88
2022-07-30T02:13:31.239Z,97128.78
2022-07-30T02:16:03.057Z,97125.19
2022-07-30T02:18:34.590Z,97117.84
2022-07-30T02:21:11.586Z,97118.66
2022-07-30T02:23:43.502Z,97116.91
2022-07-30T02:26:16.111Z,97108.13
2022-07-30T02:28:48.708Z,97107.19
2022-07-30T02:31:19.156Z,97099.03
2022-07-30T02:33:50.749Z,97104.56
2022-07-30T02:36:19.771Z,97106.09
2022-07-30T02:38:51.566Z,97118.34
2022-07-30T02:41:21.877Z,97137.78
2022-07-30T02:43:52.698Z,97151.81
2022-07-30T02:46:23.155Z,97176.88
2022-07-30T02:49:11.468Z,97173.69
2022-07-30T02:51:42.503Z,97189.16
2022-07-30T02:54:12.699Z,97185.03
2022-07-30T02:56:41.906Z,97188.28
2022-07-30T02:59:13.041Z,97198.28
2022-07-30T03:01:43.199Z,97203.53
2022-07-30T03:04:12.673Z,97199.72
2022-07-30T03:06:41.487Z,97205.13
2022-07-30T03:09:11.180Z,97197.78
2022-07-30T03:11:45.526Z,97188.59
2022-07-30T03:14:15.127Z,97190.84
2022-07-30T03:16:46.026Z,97201.41
2022-07-30T03:19:15.448Z,97193.41
2022-07-30T03:21:44.620Z,97203.31
2022-07-30T03:24:14.574Z,97198.03
2022-07-30T03:26:43.801Z,97199.78
2022-07-30T03:29:14.024Z,97200.81
2022-07-30T03:31:42.692Z,97197.72
2022-07-30T03:34:14.459Z,97184.63
2022-07-30T03:36:43.354Z,97187.06
2022-07-30T03:39:12.291Z,97191.97
2022-07-30T03:41:40.736Z,97185.19
2022-07-30T03:44:15.218Z,97194.03
2022-07-30T03:46:43.789Z,97198.38
2022-07-30T03:49:12.821Z,97198.44
2022-07-30T03:51:46.385Z,97196.78
2022-07-30T03:54:16.609Z,97205.75
2022-07-30T03:57:20.542Z,97199.78
2022-07-30T03:59:52.297Z,97209.69
2022-07-30T04:02:22.587Z,97213.09
2022-07-30T04:05:21.377Z,97219.06
2022-07-30T04:07:51.151Z,97215.25
2022-07-30T04:10:22.158Z,97221.06
2022-07-30T04:13:10.387Z,97227.63
2022-07-30T04:16:37.178Z,97227.25
2022-07-30T04:18:40.029Z,97226.53
2022-07-30T04:21:17.104Z,97224.34
2022-07-30T04:24:02.991Z,97235.09
2022-07-30T04:26:36.647Z,97233.56
2022-07-30T04:29:07.686Z,97235.59
2022-07-30T04:31:40.945Z,97243.03
2022-07-30T04:34:48.457Z,97247.63
2022-07-30T04:37:19.887Z,97247.72
2022-07-30T04:39:50.004Z,97249.31
2022-07-30T04:42:18.649Z,97251.38
2022-07-30T04:44:53.528Z,97248.59
2022-07-30T04:47:46.344Z,97254.28
2022-07-30T04:50:36.214Z,97258.78
2022-07-30T04:53:07.513Z,97251.75
2022-07-30T04:55:42.418Z,97254.38
2022-07-30T04:58:12.533Z,97255.88
2022-07-30T05:00:44.327Z,97259.81
2022-07-30T05:03:18.507Z,97263.97
2022-07-30T05:05:57.132Z,97265.28
2022-07-30T05:08:27.250Z,97268.25
2022-07-30T05:10:56.057Z,97269.41
2022-07-30T05:13:34.083Z,97266.66
2022-07-30T05:16:05.425Z,97262.78
2022-07-30T05:18:35.226Z,97267.66
2022-07-30T05:21:03.467Z,97263.44
2022-07-30T05:23:37.760Z,97266.97
2022-07-30T05:26:27.526Z,97265.38
2022-07-30T05:28:57.970Z,97265.22
2022-07-30T05:31:32.988Z,97268.03
2022-07-30T05:34:05.732Z,97260.66
2022-07-30T05:36:42.850Z,97260.94
2022-07-30T05:39:13.376Z,97259.88
2022-07-30T05:41:53.714Z,97264.91
2022-07-30T05:44:37.526Z,97268.50
2022-07-30T05:47:05.838Z,97276.59
2022-07-30T05:49:35.751Z,97272.06
2022-07-30T05:52:08.951Z,97271.22
2022-07-30T05:54:37.135Z,97281.28
2022-07-30T05:57:31.870Z,97275.50
2022-07-30T06:00:00.078Z,97289.22
2022-07-30T06:02:50.742Z,97282.50
2022-07-30T06:05:29.397Z,97293.34
2022-07-30T06:08:00.824Z,97296.72
2022-07-30T06:10:30.422Z,97302.56
2022-07-30T06:12:59.799Z,97299.97
2022-07-30T06:15:28.075Z,97299.34
2022-07-30T06:18:01.464Z,97286.53
2022-07-30T06:20:43.619Z,97290.28
2022-07-30T06:23:30.495Z,97292.75
2022-07-30T06:26:10.153Z,97297.13
2022-07-30T06:28:39.238Z,97295.94
2022-07-30T06:31:26.322Z,97299.25
2022-07-30T06:33:54.664Z,97300.66
2022-07-30T06:36:24.984Z,97310.13
2022-07-30T06:39:01.686Z,97305.88
2022-07-30T06:41:48.673Z,97301.47
2022-07-30T06:44:17.027Z,97300.06
2022-07-30T06:47:11.460Z,97305.84
2022-07-30T06:49:40.977Z,97302.28
2022-07-30T06:52:18.302Z,97305.56
2022-07-30T06:54:51.443Z,97315.19
2022-07-30T06:57:42.428Z,97320.47
2022-07-30T07:00:29.672Z,97318.41
2022-07-30T07:02:59.940Z,97319.53
2022-07-30T07:05:36.937Z,97311.88
2022-07-30T07:08:07.319Z,97314.50
2022-07-30T07:10:39.727Z,97314.25
2022-07-30T07:13:26.498Z,97314.25
2022-07-30T07:15:55.439Z,97318.63
2022-07-30T07:18:25.328Z,97312.19
2022-07-30T07:21:01.864Z,97317.97
2022-07-30T07:23:39.783Z,97321.53
2022-07-30T07:26:27.168Z,97323.19
2022-07-30T07:28:55.670Z,97321.84
2022-07-30T07:32:06.273Z,97320.50
2022-07-30T07:34:16.977Z,97318.13
2022-07-30T07:36:45.480Z,97319.69
2022-07-30T07:39:15.141Z,97315.72
2022-07-30T07:41:48.903Z,97321.94
2022-07-30T07:44:22.033Z,97317.78
2022-07-30T07:46:50.339Z,97318.25
2022-07-30T07:49:18.778Z,97314.50
2022-07-30T07:51:50.706Z,97306.75
2022-07-30T07:54:23.260Z,97308.34
2022-07-30T07:56:56.706Z,97319.75
2022-07-30T07:59:42.997Z,97317.13
2022-07-30T08:02:26.668Z,97308.34
2022-07-30T08:05:07.966Z,97313.75
2022-07-30T08:07:46.223Z,97318.16
2022-07-30T08:10:19.165Z,97319.19
2022-07-30T08:12:47.366Z,97320.31
2022-07-30T08:15:34.646Z,97319.97
2022-07-30T08:18:26.023Z,97319.03
2022-07-30T08:21:13.017Z,97322.31
2022-07-30T08:23:44.246Z,97331.47
2022-07-30T08:26:14.228Z,97328.28
2022-07-30T08:28:43.232Z,97331.63
2022-07-30T08:31:11.567Z,97334.75
2022-07-30T08:33:39.905Z,97336.44
2022-07-30T08:36:10.206Z,97327.81
2022-07-30T08:38:40.270Z,97324.16
2022-07-30T08:41:09.550Z,97323.34
2022-07-30T08:43:39.335Z,97326.31
2022-07-30T08:46:14.258Z,97319.88
2022-07-30T08:49:11.294Z,97324.66
2022-07-30T08:51:41.530Z,97323.38
2022-07-30T08:54:13.150Z,97322.63
2022-07-30T08:56:42.461Z,97317.28
2022-07-30T08:59:12.357Z,97319.31
2022-07-30T09:01:40.722Z,97322.63
2022-07-30T09:04:08.983Z,97321.38
2022-07-30T09:06:37.713Z,97321.22
2022-07-30T09:09:07.322Z,97314.16
2022-07-30T09:11:36.539Z,97311.19
2022-07-30T09:14:13.756Z,97307.97
2022-07-30T09:16:43.382Z,97304.84
2022-07-30T09:19:17.620Z,97306.38
2022-07-30T09:21:56.884Z,97304.84
2022-07-30T09:24:42.986Z,97312.59
2022-07-30T09:27:45.206Z,97313.03
2022-07-30T09:30:48.510Z,97309.78
2022-07-30T09:33:37.869Z,97311.72
2022-07-30T09:36:25.412Z,97307.34
2022-07-30T09:39:12.338Z,97298.66
2022-07-30T09:42:19.131Z,97296.09
2022-07-30T09:44:47.706Z,97301.94
2022-07-30T09:50:11.716Z,97299.59
2022-07-30T09:52:49.019Z,97302.72
2022-07-30T09:55:31.766Z,97297.56
2022-07-30T09:58:03.000Z,97294.06
2022-07-30T10:00:34.348Z,97290.81
2022-07-30T10:03:21.793Z,97302.75
2022-07-30T10:06:33.782Z,97298.41
2022-07-30T10:09:14.453Z,97292.78
2022-07-30T10:11:46.553Z,97288.31
2022-07-30T10:14:15.557Z,97296.03
2022-07-30T10:16:43.979Z,97300.47
2022-07-30T10:19:15.946Z,97284.28
2022-07-30T10:22:11.671Z,97288.69
2022-07-30T10:24:49.204Z,97283.91
2022-07-30T10:27:36.479Z,97287.22
2022-07-30T10:30:20.248Z,97295.94
2022-07-30T10:32:58.314Z,97288.75
2022-07-30T10:35:34.511Z,97285.56
2022-07-30T10:38:09.165Z,97294.94
2022-07-30T10:40:39.829Z,97293.75
2022-07-30T10:43:23.484Z,97283.94
2022-07-30T10:46:05.917Z,97285.63
2022-07-30T10:48:39.595Z,97284.50
2022-07-30T10:51:08.386Z,97287.91
2022-07-30T10:53:39.825Z,97295.91
2022-07-30T10:56:16.342Z,97286.13
2022-07-30T10:59:07.976Z,97289.50
2022-07-30T11:02:10.787Z,97286.94
2022-07-30T11:04:41.463Z,97295.53
2022-07-30T11:07:31.675Z,97299.66
2022-07-30T11:10:04.876Z,97295.16
2022-07-30T11:12:56.085Z,97293.38
2022-07-30T11:15:24.374Z,97295.41
2022-07-30T11:18:12.850Z,97293.97
2022-07-30T11:20:43.236Z,97297.91
2022-07-30T11:23:40.056Z,97292.38
2022-07-30T11:26:14.183Z,97294.97
2022-07-30T11:28:45.164Z,97286.66
2022-07-30T11:31:56.377Z,97293.56
2022-07-30T11:34:26.983Z,97283.34
2022-07-30T11:37:21.733Z,97298.19
2022-07-30T11:40:08.477Z,97294.09
2022-07-30T11:42:39.805Z,97293.56
2022-07-30T11:45:30.933Z,97285.88
2022-07-30T11:48:03.212Z,97291.44
2022-07-30T11:50:33.660Z,97286.59
2022-07-30T11:53:03.663Z,97284.41
2022-07-30T11:55:33.749Z,97280.66
2022-07-30T11:58:07.383Z,97291.66
2022-07-30T12:00:38.613Z,97288.28
2022-07-30T12:03:14.331Z,97288.97
2022-07-30T12:05:44.074Z,97286.34
2022-07-30T12:08:35.405Z,97291.47
2022-07-30T12:11:02.839Z,97278.63
2022-07-30T12:13:44.214Z,97277.63
2022-07-30T12:16:17.598Z,97276.00
2022-07-30T12:18:46.625Z,97274.75
2022-07-30T12:21:16.359Z,97274.19
2022-07-30T12:23:45.151Z,97268.84
2022-07-30T12:26:22.440Z,97264.38
2022-07-30T12:28:52.380Z,97262.13
2022-07-30T12:31:20.603Z,97265.78
2022-07-30T12:33:48.959Z,97271.75
2022-07-30T12:36:28.509Z,97270.97
2022-07-30T12:38:58.107Z,97260.94
2022-07-30T12:41:44.013Z,97258.03
2022-07-30T12:44:37.628Z,97259.31
2022-07-30T12:47:07.241Z,97258.16
2022-07-30T12:49:36.615Z,97256.69
2022-07-30T12:52:27.596Z,97254.06
2022-07-30T12:55:15.055Z,97253.47
2022-07-30T12:58:07.178Z,97249.66
2022-07-30T13:00:52.376Z,97250.19
2022-07-30T13:03:21.979Z,97249.19
2022-07-30T13:05:51.600Z,97243.69
2022-07-30T13:08:56.360Z,97239.06
2022-07-30T13:11:25.598Z,97236.00
2022-07-30T13:13:54.525Z,97231.94
2022-07-30T13:16:24.259Z,97234.50
2022-07-30T13:18:52.460Z,97244.41
2022-07-30T13:21:20.747Z,97232.31
2022-07-30T13:23:48.947Z,97231.13
2022-07-30T13:26:17.443Z,97223.06
2022-07-30T13:28:46.637Z,97213.53
2022-07-30T13:31:15.652Z,97219.88
2022-07-30T13:33:45.406Z,97209.56
2022-07-30T13:36:13.714Z,97207.16
2022-07-30T13:38:42.783Z,97200.13
2022-07-30T13:41:11.143Z,97188.09
2022-07-30T13:43:40.399Z,97184.34
2022-07-30T13:46:08.629Z,97191.66
2022-07-30T13:48:36.869Z,97188.22
2022-07-30T13:51:06.948Z,97189.88
2022-07-30T13:53:35.193Z,97181.00
2022-07-30T13:56:03.646Z,97182.06
2022-07-30T13:58:36.026Z,97180.00
2022-07-30T14:01:07.159Z,97181.69
2022-07-30T14:03:35.824Z,97177.03
2022-07-30T14:06:10.959Z,97178.94
2022-07-30T14:08:41.162Z,97187.13
2022-07-30T14:11:09.550Z,97181.41
2022-07-30T14:13:38.025Z,97183.25
2022-07-30T14:16:22.708Z,97184.47
2022-07-30T14:18:55.697Z,97180.31
2022-07-30T14:21:23.999Z,97179.66
2022-07-30T14:23:53.561Z,97185.09
2022-07-30T14:26:21.830Z,97191.78
2022-07-30T14:28:50.079Z,97183.56
2022-07-30T14:31:18.246Z,97172.75
2022-07-30T14:33:46.637Z,97174.69
2022-07-30T14:36:15.182Z,97177.28
2022-07-30T14:38:43.390Z,97181.59
2022-07-30T14:41:13.006Z,97181.81
2022-07-30T14:43:42.260Z,97186.03
2022-07-30T14:46:10.417Z,97191.66
2022-07-30T14:48:38.630Z,97188.59
2022-07-30T14:51:16.209Z,97186.72
2022-07-30T14:53:50.338Z,97192.63
2022-07-30T14:56:21.472Z,97195.44
2022-07-30T14:58:49.861Z,97184.97
2022-07-30T15:01:18.186Z,97182.28
2022-07-30T15:03:47.174Z,97193.38
2022-07-30T15:06:16.090Z,97190.91
2022-07-30T15:08:46.160Z,97192.97
2022-07-30T15:11:14.645Z,97195.81
2022-07-30T15:13:50.281Z,97197.59
2022-07-30T15:16:19.492Z,97199.94
2022-07-30T15:18:47.948Z,97193.22
2022-07-30T15:21:16.213Z,97197.31
2022-07-30T15:23:44.531Z,97194.41
2022-07-30T15:26:13.039Z,97194.00
2022-07-30T15:28:41.344Z,97194.59
2022-07-30T15:31:10.990Z,97192.69
2022-07-30T15:33:43.054Z,97198.03
2022-07-30T15:36:11.819Z,97196.50
2022-07-30T15:38:40.457Z,97193.25
2022-07-30T15:41:13.277Z,97193.28
2022-07-30T15:43:42.020Z,97188.56
2022-07-30T15:46:11.676Z,97191.06
2022-07-30T15:48:39.926Z,97183.94
2022-07-30T15:51:08.530Z,97186.19
2022-07-30T15:53:36.725Z,97184.16
2022-07-30T15:56:05.297Z,97180.09
2022-07-30T15:58:33.881Z,97180.78
2022-07-30T16:01:02.229Z,97178.75
2022-07-30T16:03:31.896Z,97198.53
2022-07-30T16:06:00.147Z,97199.34
2022-07-30T16:08:28.304Z,97196.06
2022-07-30T16:10:56.619Z,97196.22
2022-07-30T16:13:24.816Z,97198.59
2022-07-30T16:15:53.137Z,97189.59
2022-07-30T16:18:21.379Z,97200.63
2022-07-30T16:20:51.028Z,97199.41
2022-07-30T16:23:21.511Z,97197.50
2022-07-30T16:25:50.172Z,97200.03
2022-07-30T16:28:18.406Z,97200.44
2022-07-30T16:30:50.986Z,97208.09
2022-07-30T16:33:20.562Z,97210.44
2022-07-30T16:35:52.495Z,97202.94
2022-07-30T16:38:23.171Z,97216.81
2022-07-30T16:40:51.694Z,97214.56
2022-07-30T16:43:20.436Z,97213.03
2022-07-30T16:45:48.991Z,97210.78
2022-07-30T16:48:17.490Z,97216.69
2022-07-30T16:50:45.781Z,97213.72
2022-07-30T16:53:15.514Z,97220.25
2022-07-30T16:55:45.144Z,97222.47
2022-07-30T16:58:13.625Z,97225.88
2022-07-30T17:00:42.542Z,97218.28
2022-07-30T17:03:11.989Z,97221.53
2022-07-30T17:05:48.618Z,97222.38
2022-07-30T17:08:18.392Z,97223.22
2022-07-30T17:10:47.801Z,97231.78
2022-07-30T17:13:16.242Z,97233.31
2022-07-30T17:15:46.777Z,97236.41
2022-07-30T17:18:15.653Z,97234.63
2022-07-30T17:20:44.144Z,97237.19
2022-07-30T17:23:12.425Z,97248.75
2022-07-30T17:25:42.066Z,97247.94
2022-07-30T17:28:10.475Z,97252.84
2022-07-30T17:30:38.665Z,97246.38
2022-07-30T17:33:07.022Z,97252.97
2022-07-30T17:35:35.262Z,97252.81
2022-07-30T17:38:03.537Z,97260.50
2022-07-30T17:40:32.070Z,97268.78
2022-07-30T17:43:04.647Z,97260.88
2022-07-30T17:45:33.724Z,97273.88
2022-07-30T17:48:02.408Z,97282.94
2022-07-30T17:50:31.294Z,97281.69
2022-07-30T17:52:59.653Z,97282.59
2022-07-30T17:55:29.179Z,97287.88
2022-07-30T17:57:57.714Z,97296.50
2022-07-30T18:00:27.483Z,97308.06
2022-07-30T18:02:55.936Z,97311.16
2022-07-30T18:05:24.186Z,97315.34
2022-07-30T18:07:52.512Z,97308.84
2022-07-30T18:10:23.032Z,97309.28
2022-07-30T18:12:53.046Z,97317.63
2022-07-30T18:15:21.954Z,97319.53
2022-07-30T18:17:52.475Z,97337.34
2022-07-30T18:20:20.662Z,97329.38
2022-07-30T18:22:51.797Z,97331.88
2022-07-30T18:25:20.170Z,97334.44
2022-07-30T18:27:52.468Z,97334.06
2022-07-30T18:30:20.759Z,97338.63
2022-07-30T18:32:49.425Z,97339.34
2022-07-30T18:35:19.183Z,97340.28
2022-07-30T18:37:48.489Z,97347.00
2022-07-30T18:40:23.688Z,97336.97
2022-07-30T18:42:52.506Z,97337.19
2022-07-30T18:45:20.842Z,97332.91
2022-07-30T18:47:49.231Z,97344.91
2022-07-30T18:50:19.602Z,97343.03
2022-07-30T18:52:47.874Z,97354.16
2022-07-30T18:55:17.440Z,97355.91
2022-07-30T18:57:45.913Z,97353.53
2022-07-30T19:00:34.002Z,97349.03
2022-07-30T19:03:03.425Z,97359.81
2022-07-30T19:05:33.119Z,97357.19
2022-07-30T19:08:01.344Z,97366.19
2022-07-30T19:10:29.705Z,97364.06
2022-07-30T19:12:57.917Z,97366.25
2022-07-30T19:15:26.312Z,97368.22
2022-07-30T19:17:54.516Z,97370.75
2022-07-30T19:20:23.571Z,97362.84
2022-07-30T19:22:55.431Z,97370.09
2022-07-30T19:25:23.680Z,97373.59
2022-07-30T19:27:52.032Z,97363.56
2022-07-30T19:30:20.302Z,97369.59
2022-07-30T19:32:48.673Z,97367.94
2022-07-30T19:35:16.886Z,97372.38
2022-07-30T19:37:45.213Z,97370.34
2022-07-30T19:40:15.207Z,97377.41
2022-07-30T19:42:43.592Z,97377.03
2022-07-30T19:45:13.201Z,97373.72
2022-07-30T19:47:42.152Z,97377.25
2022-07-30T19:50:11.616Z,97378.97
2022-07-30T19:52:51.009Z,97376.97
2022-07-30T19:55:35.377Z,97378.50
2022-07-30T19:58:16.051Z,97373.41
2022-07-30T20:00:49.234Z,97372.78
2022-07-30T20:03:25.349Z,97377.69
2022-07-30T20:08:44.619Z,97370.34
2022-07-30T20:11:34.681Z,97378.19
2022-07-30T20:14:02.955Z,97376.84
2022-07-30T20:16:31.143Z,97374.78
2022-07-30T20:18:59.754Z,97371.94
2022-07-30T20:22:06.789Z,97373.66
2022-07-30T20:24:20.066Z,97372.03
2022-07-30T20:26:50.615Z,97373.25
2022-07-30T20:29:20.660Z,97374.50
2022-07-30T20:32:00.604Z,97374.16
2022-07-30T20:34:30.840Z,97373.25
2022-07-30T20:37:13.876Z,97370.66
2022-07-30T20:39:49.055Z,97361.69
2022-07-30T20:42:18.971Z,97374.09
2022-07-30T20:44:50.875Z,97358.34
2022-07-30T20:47:34.416Z,97367.63
2022-07-30T20:50:09.449Z,97370.88
2022-07-30T20:52:40.302Z,97370.28
2022-07-30T20:55:09.768Z,97372.63
2022-07-30T20:57:58.057Z,97378.16
2022-07-30T21:00:33.289Z,97378.13
2022-07-30T21:03:03.313Z,97387.19
2022-07-30T21:05:31.934Z,97393.03
2022-07-30T21:08:00.686Z,97387.41
2022-07-30T21:10:29.197Z,97393.44
2022-07-30T21:13:03.399Z,97391.16
2022-07-30T21:15:33.005Z,97387.78
2022-07-30T21:18:01.865Z,97387.47
2022-07-30T21:20:31.235Z,97386.31
2022-07-30T21:23:05.395Z,97391.66
2022-07-30T21:25:34.102Z,97386.97
2022-07-30T21:28:03.775Z,97387.72
2022-07-30T21:30:33.482Z,97398.84
2022-07-30T21:33:01.808Z,97393.59
2022-07-30T21:35:32.097Z,97395.28
2022-07-30T21:38:00.844Z,97389.50
2022-07-30T21:40:29.506Z,97397.53
2022-07-30T21:42:57.846Z,97396.63
2022-07-30T21:45:37.966Z,97395.84
2022-07-30T21:48:09.145Z,97394.13
2022-07-30T21:50:40.155Z,97395.84
2022-07-30T21:53:08.473Z,97400.03
2022-07-30T21:55:53.004Z,97393.31
2022-07-30T21:58:25.804Z,97390.28
2022-07-30T22:01:16.221Z,97388.38
2022-07-30T22:04:05.103Z,97393.19
2022-07-30T22:06:34.207Z,97389.47
2022-07-30T22:09:03.073Z,97387.69
2022-07-30T22:11:42.815Z,97392.19
2022-07-30T22:14:14.008Z,97397.66
2022-07-30T22:16:46.480Z,97396.59
2022-07-30T22:19:15.458Z,97390.97
2022-07-30T22:21:46.438Z,97388.56
2022-07-30T22:24:28.860Z,97393.84
2022-07-30T22:27:01.645Z,97394.41
2022-07-30T22:32:21.010Z,97381.25
2022-07-30T22:34:50.102Z,97375.13
2022-07-30T22:37:21.208Z,97369.31
2022-07-30T22:39:51.960Z,97388.06
2022-07-30T22:42:24.122Z,97380.03
2022-07-30T22:44:54.815Z,97377.88
2022-07-30T22:47:51.277Z,97381.41
2022-07-30T22:50:14.883Z,97382.66
2022-07-30T22:52:52.432Z,97388.53
2022-07-30T22:55:23.578Z,97381.41
2022-07-30T22:57:52.996Z,97391.31
2022-07-30T23:00:27.683Z,97392.09
2022-07-30T23:02:58.725Z,97392.09
2022-07-30T23:05:27.019Z,97391.78
2022-07-30T23:07:55.427Z,97385.28
2022-07-30T23:12:15.853Z,97374.94
2022-07-30T23:12:28.823Z,97387.75
2022-07-30T23:12:31.099Z,97386.69
2022-07-30T23:13:12.749Z,97392.25
2022-07-30T23:15:40.896Z,97375.06
2022-07-30T23:18:10.561Z,97384.66
2022-07-30T23:20:38.722Z,97382.38
2022-07-30T23:23:11.631Z,97386.06
2022-07-30T23:25:40.679Z,97381.09
2022-07-30T23:28:09.021Z,97388.06
2022-07-30T23:30:37.256Z,97378.78
2022-07-30T23:33:05.729Z,97370.69
2022-07-30T23:35:36.164Z,97382.69
2022-07-30T23:38:04.514Z,97383.88
2022-07-30T23:40:33.191Z,97384.34
2022-07-30T23:43:01.466Z,97381.25
2022-07-30T23:45:29.942Z,97374.94
2022-07-30T23:48:02.423Z,97373.31
2022-07-30T23:50:32.346Z,97376.59
2022-07-30T23:53:03.291Z,97373.22
2022-07-30T23:55:32.808Z,97363.22
2022-07-30T23:58:01.241Z,97363.81
